Agua Zarca de la Pena, México

7:01 PM CDT en Junio 22, 2017 (GMT -0500)
Gen Juan N Alvarez International | | Change Station

Alt 13 ft 16.76 °N, 99.75 °W | Updated 12 minutes ago

Muy nublado
Muy nublado
84 ° F
Sensación térmica 94 ° F
N
6
Viento Variable Viento desde OSO

Hoy
Alta -- | Baja -- ° F
--% Posibilidad de precipitaciones
Ayer
Alta -- | Baja -- ° F
Precip. -- pul
Presión 29.74 pul
Visibilidad 7.0 Millas
Nubes Nubes dispersas 1500 ft
Muy nublado 12000 ft
Muy nublado 30000 ft
Índice de calor 94 ° F
Punto de rocío 77 ° F
Humedad 79%
Precipitaciones 0.00 pul
Espesor de la nieve No disponible.
7:06 AM 8:14 PM
Creciente menguante, 2% visible
METAR MMAA 222349Z 25005KT 7SM SCT015TCU BKN120 BKN300 29/25 A2976 RMK SLP071 57009 955 8/262 HZY
Presión 29.74 pul
Visibilidad 7.0 Millas
Nubes Nubes dispersas 1500 ft
Muy nublado 12000 ft
Muy nublado 30000 ft
Índice de calor 94 ° F
Punto de rocío 77 ° F
Humedad 79%
Precipitaciones 0.00 pul
Espesor de la nieve No disponible.
7:06 AM 8:14 PM
Creciente menguante, 2% visible
METAR MMAA 222349Z 25005KT 7SM SCT015TCU BKN120 BKN300 29/25 A2976 RMK SLP071 57009 955 8/262 HZY

Get Severe Weather Alerts

Thanks for signing up!

Be on the lookout for a verification email in your inbox.

You'll start receiving the daily forecast at 6 AM.

×

10-Day Weather Forecast

No radar image for this location.
×

Almanac

Astronomía

Jun. 22, 2017 Salida Puesta
Hora real
Crepúsculo civil
Crepúsculo náutico
Crepúsculo astronómico
Luna
Horas de luz
Horas de luz
Tomorrow will be .
, % of the Moon is Illuminated

Extremos de hoy

Máximos del país Bajas del país

Community

WunderPhotos

Category 6

Welcome to Category 6. This is the collective home for Weather Underground's featured writeups by Dr. Jeff Masters (right), Bob Henson (left), Chris Burt, and other regular contributors.

Nearby

Calidad del aire

  Calidad del aire Índice AQ Contaminante
Not available.

Grosos de nieve

Estación Profundido Altura

Actividad de terremotos

Ciudad Distance Mag. Tiempo y dato
Magnitud mínima muestra es 2,5.

Temperaturas de aguas costeras

Lugar Temperatura

Stations

Estaciones meteorológicas cercanas

Ubicación de la estación Temp. Vientos helados Punto de rocío Humedad Viento Precip. Alt Actualizado Tipo